Time;durP1;ratioP1;P1;durP2;ratioP2;P2;SDS_P1;SDS_P2;PMS_P1;PMS_P2;Temp;Humidity;BMP_temperature;BMP_pressure;BME280_temperature;BME280_humidity;BME280_pressure;Samples;Min_cycle;Max_cycle;Signal;HPM_P1;HPM_P2
2021/07/12 00:01:30;;;;;;;13.55;11.38;;;18.10;99.90;;;;;;5271852;28;20203;-68
2021/07/12 00:04:03;;;;;;;12.90;10.35;;;18.10;99.90;;;;;;5271856;28;20242;-69
2021/07/12 00:06:35;;;;;;;12.38;11.05;;;18.10;99.90;;;;;;5270600;28;20210;-68
2021/07/12 00:09:07;;;;;;;13.40;10.20;;;18.10;99.90;;;;;;5270889;28;20539;-69
2021/07/12 00:11:40;;;;;;;15.02;10.75;;;18.10;99.90;;;;;;5270319;28;20239;-69
2021/07/12 00:14:16;;;;;;;13.05;10.57;;;18.10;99.90;;;;;;5270822;28;20251;-68
2021/07/12 00:16:48;;;;;;;12.93;10.95;;;18.00;99.90;;;;;;5271753;28;20200;-70
2021/07/12 00:19:21;;;;;;;11.70;9.25;;;18.10;99.90;;;;;;5287636;28;20736;-74
2021/07/12 00:21:55;;;;;;;13.07;10.80;;;18.00;99.90;;;;;;5271370;28;20204;-69
2021/07/12 00:24:27;;;;;;;12.45;10.18;;;18.10;99.90;;;;;;5271365;28;20246;-69
2021/07/12 00:26:59;;;;;;;12.55;10.88;;;18.10;99.90;;;;;;5271567;28;20215;-69
2021/07/12 00:29:31;;;;;;;15.88;11.30;;;18.10;99.90;;;;;;5270216;28;20232;-70
2021/07/12 00:32:07;;;;;;;11.93;9.95;;;18.10;99.90;;;;;;5253857;28;20200;-71
2021/07/12 00:34:42;;;;;;;10.75;9.65;;;18.00;99.90;;;;;;5269948;28;20281;-71
2021/07/12 00:37:14;;;;;;;13.50;10.45;;;18.10;99.90;;;;;;5270332;28;20509;-68
2021/07/12 00:39:46;;;;;;;12.77;9.30;;;18.00;99.90;;;;;;5270046;28;20646;-68
2021/07/12 00:42:21;;;;;;;13.00;9.55;;;18.10;99.90;;;;;;5270015;28;20211;-72
2021/07/12 00:44:53;;;;;;;12.15;10.30;;;18.10;99.90;;;;;;5271057;28;20243;-68
2021/07/12 00:47:26;;;;;;;11.77;9.80;;;18.00;99.90;;;;;;5271062;28;20674;-70
2021/07/12 00:49:58;;;;;;;11.13;9.30;;;18.00;99.90;;;;;;5286950;28;20225;-68
2021/07/12 00:52:30;;;;;;;12.50;10.55;;;18.00;99.90;;;;;;5270241;28;20548;-69
2021/07/12 00:55:17;;;;;;;11.55;9.82;;;18.00;99.90;;;;;;5270170;28;20234;-69
2021/07/12 00:57:50;;;;;;;12.35;9.73;;;18.00;99.90;;;;;;5287139;28;20619;-72
2021/07/12 01:00:24;;;;;;;12.15;9.32;;;18.10;99.90;;;;;;5270612;28;20232;-71
2021/07/12 01:02:56;;;;;;;10.27;9.18;;;18.10;99.90;;;;;;5286965;28;20204;-71
2021/07/12 01:05:31;;;;;;;11.82;9.35;;;18.10;99.90;;;;;;5269570;28;20232;-68
2021/07/12 01:08:04;;;;;;;10.35;8.85;;;18.10;99.90;;;;;;5271173;28;20282;-72
2021/07/12 01:10:41;;;;;;;10.60;9.52;;;18.10;99.90;;;;;;5286246;28;20236;-72
2021/07/12 01:13:20;;;;;;;12.02;9.55;;;18.10;99.90;;;;;;5286608;28;20241;-69
2021/07/12 01:16:14;;;;;;;10.60;9.00;;;18.10;99.90;;;;;;5268971;28;20220;-69
2021/07/12 01:18:55;;;;;;;14.98;9.43;;;18.10;99.90;;;;;;5270246;28;20208;-69
2021/07/12 01:21:40;;;;;;;10.15;8.55;;;18.10;99.90;;;;;;5270353;28;20550;-69
2021/07/12 01:24:23;;;;;;;10.37;8.53;;;18.10;99.90;;;;;;5269610;28;20557;-71
2021/07/12 01:27:27;;;;;;;10.13;7.90;;;18.00;99.90;;;;;;5270505;28;20192;-71
2021/07/12 01:30:35;;;;;;;9.88;8.38;;;18.00;99.90;;;;;;5266142;28;20231;-70
2021/07/12 01:33:36;;;;;;;12.02;8.32;;;18.00;99.90;;;;;;5270373;28;20188;-70
2021/07/12 01:36:21;;;;;;;9.23;8.20;;;18.00;99.90;;;;;;5270545;28;20224;-71
2021/07/12 01:39:21;;;;;;;12.18;8.60;;;18.00;99.90;;;;;;5270794;28;20200;-72
2021/07/12 01:42:06;;;;;;;11.13;8.45;;;18.00;99.90;;;;;;5286422;28;20608;-69
2021/07/12 01:44:50;;;;;;;13.65;8.00;;;18.00;99.90;;;;;;5270550;28;20508;-70
2021/07/12 01:47:43;;;;;;;10.48;7.90;;;18.00;99.90;;;;;;5269488;28;20215;-69
2021/07/12 01:50:23;;;;;;;9.20;7.68;;;18.00;99.90;;;;;;5286302;28;20200;-71
2021/07/12 01:53:14;;;;;;;11.88;8.18;;;18.00;99.90;;;;;;5286353;28;20196;-68
2021/07/12 01:56:00;;;;;;;9.57;8.32;;;18.00;99.90;;;;;;5269152;28;20449;-69
2021/07/12 01:58:42;;;;;;;10.43;8.05;;;18.00;99.90;;;;;;5270061;28;20541;-72
2021/07/12 02:01:16;;;;;;;9.40;7.80;;;17.90;99.90;;;;;;5268812;28;20207;-71
2021/07/12 02:03:49;;;;;;;8.68;7.47;;;17.90;99.90;;;;;;5269636;28;20303;-68
2021/07/12 02:06:23;;;;;;;8.90;8.00;;;18.00;99.90;;;;;;5270155;28;20228;-68
2021/07/12 02:08:59;;;;;;;12.73;8.20;;;18.00;99.90;;;;;;5269940;28;20515;-71
2021/07/12 02:11:32;;;;;;;9.90;8.13;;;18.00;99.90;;;;;;5269440;28;20235;-69
2021/07/12 02:14:05;;;;;;;14.20;8.65;;;17.90;99.90;;;;;;5269700;28;20205;-68
2021/07/12 02:16:39;;;;;;;11.80;7.13;;;17.90;99.90;;;;;;5269981;28;20239;-68
2021/07/12 02:19:12;;;;;;;10.52;8.32;;;17.90;99.90;;;;;;5285862;28;20215;-70
2021/07/12 02:21:51;;;;;;;12.80;8.57;;;17.90;99.90;;;;;;5269550;28;20232;-69
2021/07/12 02:24:25;;;;;;;10.07;7.72;;;17.90;99.90;;;;;;5269678;28;20219;-67
2021/07/12 02:26:58;;;;;;;14.10;8.25;;;17.90;99.90;;;;;;5271530;28;20228;-68
2021/07/12 02:29:32;;;;;;;11.40;7.95;;;18.00;99.90;;;;;;5273648;28;20196;-68
2021/07/12 02:32:05;;;;;;;10.10;7.65;;;18.00;99.90;;;;;;5272537;28;20220;-67
2021/07/12 02:34:38;;;;;;;9.98;7.88;;;18.00;99.90;;;;;;5272712;28;20579;-70
2021/07/12 02:37:12;;;;;;;8.13;7.27;;;18.00;99.90;;;;;;5272457;28;20267;-70
2021/07/12 02:39:46;;;;;;;11.35;8.38;;;18.00;99.90;;;;;;5273839;28;20211;-68
2021/07/12 02:42:18;;;;;;;10.88;8.18;;;18.00;99.90;;;;;;5273473;28;20243;-71
2021/07/12 02:44:52;;;;;;;11.88;7.90;;;18.10;99.90;;;;;;5273179;28;20251;-67
2021/07/12 02:47:24;;;;;;;11.43;8.55;;;18.10;99.90;;;;;;5273651;28;20247;-70
2021/07/12 02:49:56;;;;;;;14.25;8.40;;;18.10;99.90;;;;;;5289471;28;20210;-71
2021/07/12 02:52:38;;;;;;;9.73;8.73;;;18.20;99.90;;;;;;5272164;28;20228;-72
2021/07/12 02:55:11;;;;;;;9.55;8.45;;;18.20;99.90;;;;;;5273421;28;20214;-72
2021/07/12 02:57:44;;;;;;;9.88;8.70;;;18.30;99.90;;;;;;5273322;28;20254;-69
2021/07/12 03:00:17;;;;;;;10.15;7.82;;;18.30;99.90;;;;;;5289617;28;20212;-68
2021/07/12 03:02:49;;;;;;;13.63;8.13;;;18.30;99.90;;;;;;5273038;28;20232;-68
2021/07/12 03:05:23;;;;;;;12.10;7.47;;;18.40;99.90;;;;;;5271993;28;20695;-68
2021/07/12 03:08:07;;;;;;;9.00;7.60;;;18.40;99.90;;;;;;5272705;28;20243;-68
2021/07/12 03:10:44;;;;;;;9.75;7.55;;;18.40;99.90;;;;;;5273034;28;20559;-67
2021/07/12 03:13:24;;;;;;;11.35;7.45;;;18.40;99.90;;;;;;5272260;28;20247;-70
2021/07/12 03:15:57;;;;;;;9.10;7.05;;;18.50;99.90;;;;;;5273312;28;20207;-67
2021/07/12 03:18:34;;;;;;;10.13;7.00;;;18.50;99.90;;;;;;5272960;28;20239;-69
2021/07/12 03:21:08;;;;;;;10.10;6.85;;;18.60;99.90;;;;;;5272287;28;20219;-70
2021/07/12 03:23:42;;;;;;;8.20;6.30;;;18.60;99.90;;;;;;5272432;28;20222;-66
2021/07/12 03:26:20;;;;;;;8.63;6.40;;;18.70;99.90;;;;;;5271318;28;20234;-69
2021/07/12 03:28:55;;;;;;;7.45;6.05;;;18.80;99.90;;;;;;5288214;28;20686;-69
2021/07/12 03:31:30;;;;;;;8.52;6.10;;;18.90;99.90;;;;;;5272581;28;20204;-67
2021/07/12 03:34:03;;;;;;;8.52;6.00;;;19.00;99.90;;;;;;5272353;28;20185;-71
2021/07/12 03:36:37;;;;;;;7.55;5.70;;;19.00;99.90;;;;;;5272398;28;20197;-69
2021/07/12 03:39:10;;;;;;;7.60;6.30;;;19.10;99.90;;;;;;5272016;28;20210;-67
2021/07/12 03:41:42;;;;;;;8.70;6.35;;;19.10;99.90;;;;;;5272339;28;20219;-71
2021/07/12 03:44:15;;;;;;;7.53;6.72;;;19.10;99.90;;;;;;5271492;28;20214;-68
2021/07/12 03:46:47;;;;;;;9.05;6.55;;;19.20;99.90;;;;;;5272031;28;20218;-71
2021/07/12 03:49:19;;;;;;;7.20;6.15;;;19.20;99.90;;;;;;5272012;28;20211;-68
2021/07/12 03:51:54;;;;;;;9.13;6.10;;;19.20;99.90;;;;;;5272343;28;20207;-69
2021/07/12 03:54:28;;;;;;;8.05;6.13;;;19.30;99.90;;;;;;5297904;27;20208;-69
2021/07/12 03:57:00;;;;;;;7.18;6.10;;;19.30;99.90;;;;;;5314579;27;20217;-69
2021/07/12 03:59:32;;;;;;;7.90;6.57;;;19.40;99.90;;;;;;5313598;27;20214;-70
2021/07/12 04:02:04;;;;;;;9.02;6.28;;;19.50;99.90;;;;;;5313281;27;20211;-69
2021/07/12 04:04:36;;;;;;;7.30;6.32;;;19.50;99.90;;;;;;5287518;28;20246;-68
2021/07/12 04:07:08;;;;;;;9.90;5.93;;;19.50;99.90;;;;;;5292405;28;20200;-68
2021/07/12 04:09:40;;;;;;;8.25;6.55;;;19.50;99.90;;;;;;5292254;28;20302;-68
2021/07/12 04:12:22;;;;;;;9.73;5.78;;;19.60;99.90;;;;;;5292651;28;20187;-68
2021/07/12 04:14:54;;;;;;;9.00;5.63;;;19.60;99.90;;;;;;5289923;28;20200;-71
2021/07/12 04:17:29;;;;;;;8.93;6.18;;;19.60;99.90;;;;;;5292236;28;20250;-69
2021/07/12 04:20:04;;;;;;;10.55;6.45;;;19.70;99.90;;;;;;5292985;28;20203;-69
2021/07/12 04:22:38;;;;;;;10.07;6.20;;;19.70;99.90;;;;;;5292243;28;20638;-70
2021/07/12 04:25:13;;;;;;;10.65;6.07;;;19.70;99.90;;;;;;5291147;28;20318;-68
2021/07/12 04:27:48;;;;;;;9.75;6.93;;;19.70;99.90;;;;;;5291215;28;20214;-68
2021/07/12 04:30:24;;;;;;;8.52;6.63;;;19.70;99.90;;;;;;5291257;28;20522;-70
2021/07/12 04:32:56;;;;;;;10.52;6.95;;;19.80;99.90;;;;;;5291196;28;20206;-71
2021/07/12 04:35:28;;;;;;;9.68;6.95;;;19.80;99.90;;;;;;5292185;28;20214;-68
2021/07/12 04:38:02;;;;;;;7.93;6.28;;;19.80;99.90;;;;;;5274481;28;20207;-70
2021/07/12 04:40:34;;;;;;;9.27;5.90;;;19.90;99.90;;;;;;5291784;28;20280;-68
2021/07/12 04:43:09;;;;;;;10.68;6.35;;;19.90;99.90;;;;;;5290766;28;20211;-68
2021/07/12 04:45:41;;;;;;;8.32;5.88;;;19.90;99.90;;;;;;5291850;28;20219;-67
2021/07/12 04:48:13;;;;;;;11.20;6.95;;;19.90;99.90;;;;;;5291713;28;20210;-69
2021/07/12 04:50:45;;;;;;;16.25;12.38;;;19.90;99.90;;;;;;5290108;28;20195;-70
2021/07/12 04:53:17;;;;;;;12.82;10.05;;;19.90;99.90;;;;;;5291704;28;20298;-69
2021/07/12 04:55:49;;;;;;;14.45;8.88;;;20.00;99.90;;;;;;5292004;27;20203;-71
2021/07/12 04:58:21;;;;;;;7.82;6.25;;;20.00;99.90;;;;;;5274977;28;20518;-69
2021/07/12 05:00:55;;;;;;;11.57;6.10;;;20.00;99.90;;;;;;5291748;28;20211;-69
2021/07/12 05:03:31;;;;;;;9.52;6.03;;;20.10;99.90;;;;;;5294904;28;20211;-67
2021/07/12 05:06:03;;;;;;;9.00;5.72;;;20.10;99.90;;;;;;5292691;28;20213;-70
2021/07/12 05:08:39;;;;;;;8.20;5.40;;;20.20;99.90;;;;;;5292608;28;20203;-68
2021/07/12 05:11:11;;;;;;;10.20;5.35;;;20.30;99.90;;;;;;5292448;27;20658;-66
2021/07/12 05:13:44;;;;;;;7.88;5.20;;;20.40;99.90;;;;;;5293620;27;20214;-68
2021/07/12 05:16:16;;;;;;;8.40;5.00;;;20.60;99.90;;;;;;5273097;28;20207;-68
2021/07/12 05:18:48;;;;;;;6.43;4.55;;;20.90;99.90;;;;;;5281562;28;20191;-69
2021/07/12 05:21:23;;;;;;;5.97;4.20;;;21.10;99.90;;;;;;5292130;28;20580;-67
2021/07/12 05:23:56;;;;;;;6.85;4.22;;;21.30;99.90;;;;;;5291960;28;20243;-69
2021/07/12 05:26:28;;;;;;;8.50;4.30;;;21.60;99.90;;;;;;5292369;28;20477;-69
2021/07/12 05:29:00;;;;;;;6.75;4.30;;;21.70;99.90;;;;;;5273924;28;20210;-73
2021/07/12 05:31:32;;;;;;;5.07;4.35;;;21.60;99.90;;;;;;5291752;28;20562;-68
2021/07/12 05:34:07;;;;;;;5.03;4.25;;;21.60;99.90;;;;;;5291863;28;20187;-68
2021/07/12 05:36:42;;;;;;;6.43;4.30;;;21.50;99.90;;;;;;5290680;28;20294;-70
2021/07/12 05:39:14;;;;;;;6.93;4.40;;;21.40;99.90;;;;;;5291088;28;20526;-70
2021/07/12 05:41:51;;;;;;;8.80;5.00;;;21.30;99.90;;;;;;5291988;28;20247;-72
2021/07/12 05:44:23;;;;;;;8.82;4.65;;;21.20;99.90;;;;;;5291570;28;20520;-69
2021/07/12 05:46:55;;;;;;;5.68;4.28;;;21.30;99.90;;;;;;5290899;28;20224;-67
2021/07/12 05:49:27;;;;;;;6.07;4.78;;;21.40;99.90;;;;;;5291656;28;20199;-67
2021/07/12 05:52:05;;;;;;;6.75;4.53;;;21.50;99.90;;;;;;5290530;28;20207;-69
2021/07/12 05:54:38;;;;;;;7.50;4.53;;;21.60;99.90;;;;;;5290122;28;20214;-68
2021/07/12 05:57:10;;;;;;;6.45;4.03;;;21.70;99.90;;;;;;5291075;28;20199;-68
2021/07/12 05:59:44;;;;;;;11.52;5.15;;;21.90;99.90;;;;;;5289922;28;20199;-68
2021/07/12 06:02:17;;;;;;;6.20;4.40;;;21.90;99.90;;;;;;5295668;28;20180;-70
2021/07/12 06:04:52;;;;;;;11.07;4.65;;;22.00;99.90;;;;;;5294146;28;20235;-68
2021/07/12 06:07:26;;;;;;;9.45;4.72;;;22.00;99.90;;;;;;5295515;28;20524;-71
2021/07/12 06:09:58;;;;;;;6.25;4.30;;;22.30;99.90;;;;;;5294545;28;20642;-69
2021/07/12 06:12:30;;;;;;;5.80;4.40;;;22.70;99.90;;;;;;5277744;28;20644;-71
2021/07/12 06:15:04;;;;;;;9.80;3.70;;;22.90;99.90;;;;;;5295339;28;20212;-69
2021/07/12 06:17:39;;;;;;;6.88;4.30;;;22.90;99.90;;;;;;5295549;28;20599;-67
2021/07/12 06:20:17;;;;;;;8.40;4.47;;;22.80;99.90;;;;;;5295370;28;20222;-66
2021/07/12 06:22:50;;;;;;;4.90;4.15;;;22.70;99.90;;;;;;5295013;28;20207;-65
2021/07/12 06:25:26;;;;;;;8.07;4.43;;;22.70;99.90;;;;;;5295306;28;20237;-65
2021/07/12 06:27:59;;;;;;;9.02;4.47;;;22.60;99.90;;;;;;5294363;28;20309;-64
2021/07/12 06:30:31;;;;;;;6.18;3.72;;;22.80;99.90;;;;;;5295007;28;20227;-65
2021/07/12 06:33:04;;;;;;;6.47;3.67;;;23.50;99.90;;;;;;5294025;28;20623;-66
2021/07/12 06:35:36;;;;;;;8.20;3.55;;;24.20;99.90;;;;;;5295479;28;20235;-65
2021/07/12 06:38:08;;;;;;;5.30;3.42;;;24.50;99.90;;;;;;5277048;28;20211;-64
2021/07/12 06:40:40;;;;;;;5.70;3.67;;;24.70;99.90;;;;;;5295020;28;20203;-64
2021/07/12 06:43:12;;;;;;;7.07;3.22;;;24.50;99.90;;;;;;5294100;28;20633;-64
2021/07/12 06:45:44;;;;;;;6.70;3.83;;;24.30;99.90;;;;;;5294255;28;20215;-66
2021/07/12 06:48:16;;;;;;;5.43;3.72;;;24.10;99.90;;;;;;5294285;28;20241;-63
2021/07/12 06:50:50;;;;;;;7.75;3.83;;;23.60;99.90;;;;;;5293932;28;20210;-63
2021/07/12 06:53:40;;;;;;;7.85;3.83;;;23.20;99.90;;;;;;5292960;28;20286;-67
2021/07/12 06:56:14;;;;;;;5.15;3.70;;;23.00;99.90;;;;;;5276226;28;20242;-64
2021/07/12 06:58:46;;;;;;;7.35;4.63;;;22.80;99.90;;;;;;5292820;28;20645;-67
2021/07/12 07:01:19;;;;;;;14.57;4.78;;;22.70;99.90;;;;;;5275744;28;20242;-64
2021/07/12 07:03:51;;;;;;;8.85;4.15;;;22.70;99.90;;;;;;5292564;28;20188;-64
2021/07/12 07:06:23;;;;;;;7.68;4.28;;;22.80;99.90;;;;;;5292726;28;20243;-57
2021/07/12 07:08:55;;;;;;;6.32;3.95;;;22.90;99.90;;;;;;5294422;28;20290;-55
2021/07/12 07:11:27;;;;;;;6.05;4.22;;;23.40;99.90;;;;;;5293405;28;20334;-59
2021/07/12 07:14:00;;;;;;;8.57;4.28;;;23.70;99.90;;;;;;5292430;28;20203;-57
2021/07/12 07:16:32;;;;;;;5.43;3.90;;;24.10;99.90;;;;;;5293718;27;20223;-53
2021/07/12 07:19:06;;;;;;;5.00;3.25;;;24.70;99.90;;;;;;5293317;27;20631;-67
2021/07/12 07:21:38;;;;;;;4.75;3.53;;;25.70;99.90;;;;;;5307805;27;20695;-70
2021/07/12 07:24:10;;;;;;;4.18;3.00;;;26.40;99.90;;;;;;5294237;27;20219;-65
2021/07/12 07:26:42;;;;;;;5.85;3.15;;;26.70;99.90;;;;;;5315960;27;20238;-67
2021/07/12 07:29:20;;;;;;;5.38;2.88;;;26.80;99.90;;;;;;5307757;27;20255;-65
2021/07/12 07:31:55;;;;;;;4.35;2.95;;;26.20;99.90;;;;;;5314756;27;20293;-65
2021/07/12 07:34:41;;;;;;;5.20;3.05;;;25.80;99.90;;;;;;5313981;27;20190;-63
2021/07/12 07:37:13;;;;;;;6.75;3.28;;;25.60;99.90;;;;;;5314524;27;20233;-62
2021/07/12 07:39:45;;;;;;;8.70;3.63;;;25.40;99.90;;;;;;5301452;27;20204;-65
2021/07/12 07:42:26;;;;;;;4.15;2.92;;;25.40;99.90;;;;;;5293401;28;20378;-68
2021/07/12 07:45:00;;;;;;;5.63;3.13;;;25.40;99.90;;;;;;5309103;27;20532;-66
2021/07/12 07:47:33;;;;;;;6.75;3.70;;;25.40;99.90;;;;;;5291959;28;20666;-67
2021/07/12 07:50:22;;;;;;;6.80;3.55;;;25.40;99.90;;;;;;5292120;27;20227;-63
2021/07/12 07:52:54;;;;;;;9.38;3.45;;;25.50;99.90;;;;;;5275135;28;20223;-64
2021/07/12 07:55:26;;;;;;;5.18;3.55;;;25.40;99.90;;;;;;5298659;27;20219;-65
2021/07/12 07:57:58;;;;;;;6.72;3.53;;;25.00;99.90;;;;;;5292832;27;20245;-67
2021/07/12 08:00:30;;;;;;;10.13;3.65;;;24.50;99.90;;;;;;5293311;28;20596;-69
2021/07/12 08:03:05;;;;;;;8.23;3.67;;;24.20;99.90;;;;;;5292590;28;20223;-65
2021/07/12 08:05:38;;;;;;;7.70;4.13;;;24.00;99.90;;;;;;5292874;28;20214;-66
2021/07/12 08:08:10;;;;;;;6.47;3.83;;;23.80;99.90;;;;;;5293170;27;20227;-64
2021/07/12 08:10:42;;;;;;;7.80;4.00;;;23.80;99.90;;;;;;5274632;28;20231;-65
2021/07/12 08:13:14;;;;;;;6.82;4.38;;;24.00;99.90;;;;;;5292441;28;20243;-65
2021/07/12 08:15:47;;;;;;;8.55;4.88;;;24.20;99.90;;;;;;5292249;28;20214;-68
2021/07/12 08:18:20;;;;;;;7.30;3.70;;;24.50;99.90;;;;;;5292314;28;20573;-67
2021/07/12 08:20:53;;;;;;;5.78;3.80;;;24.70;99.90;;;;;;5292251;28;20225;-66
2021/07/12 08:23:26;;;;;;;6.70;3.42;;;24.80;99.90;;;;;;5291355;28;20238;-68
2021/07/12 08:25:58;;;;;;;5.75;3.95;;;25.10;99.90;;;;;;5292554;28;20654;-66
2021/07/12 08:28:30;;;;;;;5.60;3.58;;;25.20;99.90;;;;;;5292070;28;20561;-65
2021/07/12 08:31:02;;;;;;;6.20;3.63;;;25.30;99.90;;;;;;5292507;28;20501;-65
2021/07/12 08:33:34;;;;;;;4.53;3.45;;;25.00;99.90;;;;;;5291359;28;20538;-67
2021/07/12 08:36:09;;;;;;;6.82;4.07;;;24.70;99.90;;;;;;5292089;28;20285;-68
2021/07/12 08:38:44;;;;;;;6.18;3.75;;;24.60;99.90;;;;;;5292120;28;20680;-67
2021/07/12 08:41:16;;;;;;;5.28;3.60;;;24.50;99.90;;;;;;5290868;28;20209;-66
2021/07/12 08:43:48;;;;;;;4.85;3.60;;;24.50;99.90;;;;;;5290578;28;20304;-68
2021/07/12 08:46:24;;;;;;;7.00;4.05;;;24.60;99.90;;;;;;5291119;28;20237;-68
2021/07/12 08:48:58;;;;;;;5.68;3.35;;;25.10;99.90;;;;;;5291966;28;20223;-66
2021/07/12 08:51:30;;;;;;;5.43;3.47;;;25.40;99.90;;;;;;5290984;28;20199;-66
2021/07/12 08:54:02;;;;;;;4.40;3.58;;;25.20;99.90;;;;;;5291790;28;20199;-65
2021/07/12 08:56:37;;;;;;;5.95;3.65;;;25.20;99.90;;;;;;5292049;28;20611;-68
2021/07/12 08:59:29;;;;;;;7.43;3.78;;;25.30;99.90;;;;;;5292239;28;20203;-69
2021/07/12 09:02:13;;;;;;;4.88;3.50;;;25.40;99.90;;;;;;5291940;28;20516;-66
2021/07/12 09:04:56;;;;;;;6.45;4.15;;;25.30;99.90;;;;;;5292177;28;20540;-70
2021/07/12 09:07:32;;;;;;;4.60;3.88;;;25.10;99.90;;;;;;5290541;28;20212;-67
2021/07/12 09:10:10;;;;;;;10.15;4.03;;;24.90;99.90;;;;;;5294107;27;20293;-67
2021/07/12 09:12:48;;;;;;;15.55;6.80;;;24.80;99.90;;;;;;5310654;27;20190;-68
2021/07/12 09:15:23;;;;;;;15.75;6.97;;;25.20;99.90;;;;;;5291259;28;20222;-66
2021/07/12 09:17:55;;;;;;;6.07;3.72;;;25.40;99.90;;;;;;5291278;28;20565;-67
2021/07/12 09:20:32;;;;;;;4.70;3.85;;;25.40;99.90;;;;;;5290452;28;20223;-64
2021/07/12 09:23:22;;;;;;;5.32;3.97;;;25.10;99.90;;;;;;5291533;28;20203;-67
2021/07/12 09:26:03;;;;;;;5.15;4.07;;;25.10;99.90;;;;;;5290159;28;20250;-66
2021/07/12 09:28:41;;;;;;;8.23;4.20;;;25.10;99.90;;;;;;5290374;28;20211;-68
2021/07/12 09:31:31;;;;;;;9.65;4.97;;;25.20;99.90;;;;;;5290417;28;20639;-69
2021/07/12 09:34:03;;;;;;;9.52;3.92;;;25.10;99.90;;;;;;5291191;28;20216;-67
2021/07/12 09:36:38;;;;;;;6.32;3.80;;;25.10;99.90;;;;;;5306452;28;20519;-67
2021/07/12 09:39:16;;;;;;;6.93;3.83;;;24.90;99.90;;;;;;5295529;28;20211;-66
2021/07/12 09:41:50;;;;;;;5.90;3.90;;;24.70;99.90;;;;;;5289994;28;20218;-68
2021/07/12 09:44:24;;;;;;;8.60;4.32;;;24.70;99.90;;;;;;5290493;28;20215;-75
2021/07/12 09:47:04;;;;;;;6.78;3.95;;;25.00;99.90;;;;;;5291191;28;20545;-71
2021/07/12 09:49:37;;;;;;;5.63;3.70;;;25.10;99.90;;;;;;5291318;28;20190;-72
2021/07/12 09:52:12;;;;;;;5.65;3.67;;;25.10;99.90;;;;;;5291240;28;20252;-73
2021/07/12 09:54:47;;;;;;;7.45;3.67;;;25.20;99.90;;;;;;5291386;28;20199;-72
2021/07/12 09:57:22;;;;;;;13.32;5.35;;;25.20;99.90;;;;;;5290614;28;20229;-70
2021/07/12 09:59:59;;;;;;;6.00;3.28;;;25.10;99.90;;;;;;5291190;28;20658;-71
2021/07/12 10:02:33;;;;;;;4.40;3.40;;;25.10;99.90;;;;;;5291388;28;20199;-71
2021/07/12 10:05:10;;;;;;;10.45;4.25;;;25.10;99.90;;;;;;5291613;28;20679;-71
2021/07/12 10:07:44;;;;;;;5.18;3.58;;;25.20;99.90;;;;;;5291177;28;20299;-70
2021/07/12 10:10:19;;;;;;;5.88;4.03;;;25.30;99.90;;;;;;5290819;28;20235;-64
2021/07/12 10:12:53;;;;;;;5.25;3.45;;;25.10;99.90;;;;;;5290864;28;20566;-64
2021/07/12 10:15:27;;;;;;;7.15;3.50;;;25.10;99.90;;;;;;5290737;28;20199;-66
2021/07/12 10:18:05;;;;;;;6.10;3.80;;;25.20;99.90;;;;;;5290884;28;20597;-64
2021/07/12 10:20:38;;;;;;;6.63;3.83;;;25.30;99.90;;;;;;5290535;28;20187;-64
2021/07/12 10:23:14;;;;;;;5.18;3.40;;;25.50;99.90;;;;;;5273334;28;20203;-65
2021/07/12 10:25:53;;;;;;;7.53;3.33;;;25.50;99.90;;;;;;5290843;28;20533;-65
2021/07/12 10:28:45;;;;;;;6.70;3.25;;;25.20;99.90;;;;;;5290769;28;20580;-68
2021/07/12 10:31:19;;;;;;;5.93;3.35;;;24.90;99.90;;;;;;5289476;28;20224;-68
2021/07/12 10:33:52;;;;;;;5.63;2.60;;;24.80;99.90;;;;;;5290493;28;20208;-68
2021/07/12 10:36:56;;;;;;;5.20;3.05;;;24.90;99.90;;;;;;5290625;28;20231;-65
2021/07/12 10:39:59;;;;;;;4.75;3.17;;;24.70;99.90;;;;;;5290243;28;20623;-66
2021/07/12 10:42:45;;;;;;;4.25;2.97;;;24.60;99.90;;;;;;5290191;28;20239;-66
2021/07/12 10:45:30;;;;;;;6.72;3.60;;;24.60;99.90;;;;;;5289522;28;20203;-67
2021/07/12 10:48:11;;;;;;;6.75;3.47;;;24.60;99.90;;;;;;5292482;28;20309;-66
2021/07/12 10:50:49;;;;;;;4.68;3.70;;;24.60;99.90;;;;;;5294733;28;20193;-66
2021/07/12 10:53:26;;;;;;;8.75;3.45;;;24.50;99.90;;;;;;5294460;28;20226;-67
2021/07/12 10:55:58;;;;;;;5.80;3.30;;;24.60;99.90;;;;;;5294324;28;20199;-65
2021/07/12 10:58:37;;;;;;;6.22;3.67;;;24.60;99.90;;;;;;5294233;28;20678;-66
2021/07/12 11:01:11;;;;;;;6.82;3.50;;;24.60;99.90;;;;;;5294363;28;20515;-67
2021/07/12 11:03:51;;;;;;;5.20;3.50;;;24.70;99.90;;;;;;5294138;28;20206;-54
2021/07/12 11:06:45;;;;;;;6.10;3.70;;;24.60;99.90;;;;;;5293838;28;20223;-53
2021/07/12 11:10:00;;;;;;;7.75;4.07;;;24.40;99.90;;;;;;5294145;28;20207;-56
2021/07/12 11:12:58;;;;;;;7.70;4.20;;;24.40;99.90;;;;;;5292700;28;20355;-56
2021/07/12 11:15:45;;;;;;;5.10;4.00;;;24.40;99.90;;;;;;5293618;28;20279;-62
2021/07/12 11:18:37;;;;;;;4.47;4.05;;;24.50;99.90;;;;;;5293758;28;20223;-61
2021/07/12 11:21:14;;;;;;;4.70;4.15;;;24.60;99.90;;;;;;5294185;28;20513;-60
2021/07/12 11:23:56;;;;;;;20.95;9.15;;;24.70;99.90;;;;;;5293357;28;20630;-62
2021/07/12 11:26:27;;;;;;;17.63;6.45;;;24.80;99.90;;;;;;5293302;28;20222;-63
2021/07/12 11:29:28;;;;;;;9.13;4.28;;;24.80;99.90;;;;;;5293668;28;20306;-60
2021/07/12 11:32:03;;;;;;;18.80;9.63;;;24.80;99.90;;;;;;5292293;28;20578;-59
2021/07/12 11:34:45;;;;;;;8.73;4.22;;;24.90;99.90;;;;;;5293700;28;20552;-61
2021/07/12 11:37:26;;;;;;;14.32;7.57;;;24.80;99.90;;;;;;5292901;28;20207;-62
2021/07/12 11:40:03;;;;;;;6.70;3.95;;;24.90;99.90;;;;;;5293242;28;20629;-62
2021/07/12 11:42:40;;;;;;;4.70;3.92;;;25.00;99.90;;;;;;5293601;28;20191;-60
2021/07/12 11:45:17;;;;;;;10.85;4.30;;;25.00;99.90;;;;;;5293120;27;20183;-62
2021/07/12 11:47:57;;;;;;;7.10;4.43;;;24.90;99.90;;;;;;5292910;28;20306;-66
2021/07/12 11:50:32;;;;;;;8.18;4.10;;;24.80;99.90;;;;;;5293162;28;20222;-59
2021/07/12 11:53:06;;;;;;;4.97;3.75;;;24.90;99.90;;;;;;5292003;28;20572;-61
2021/07/12 11:55:40;;;;;;;5.28;4.25;;;24.90;99.90;;;;;;5291991;28;20647;-62
2021/07/12 11:58:12;;;;;;;18.10;6.43;;;25.00;99.90;;;;;;5292533;28;20548;-62
2021/07/12 12:00:45;;;;;;;5.25;3.85;;;25.10;99.90;;;;;;5292583;27;20207;-60
2021/07/12 12:03:17;;;;;;;7.72;3.80;;;25.20;99.90;;;;;;5291809;28;20222;-63
2021/07/12 12:05:52;;;;;;;6.78;3.28;;;25.30;99.90;;;;;;5292819;28;20248;-61
2021/07/12 12:08:24;;;;;;;7.80;3.40;;;25.30;99.90;;;;;;5291665;28;20587;-63
2021/07/12 12:11:00;;;;;;;7.22;3.50;;;25.20;99.90;;;;;;5292685;27;20247;-57
2021/07/12 12:13:32;;;;;;;7.18;3.50;;;25.20;99.90;;;;;;5271249;28;20290;-63
2021/07/12 12:16:05;;;;;;;6.13;3.85;;;25.20;99.90;;;;;;5270335;28;20189;-59
2021/07/12 12:18:39;;;;;;;6.25;3.08;;;25.30;99.90;;;;;;5280627;28;20207;-58
2021/07/12 12:21:14;;;;;;;6.60;3.70;;;25.30;99.90;;;;;;5292351;28;20202;-59
2021/07/12 12:23:46;;;;;;;7.72;3.88;;;25.40;99.90;;;;;;5312192;27;20320;-57
2021/07/12 12:26:27;;;;;;;8.60;3.90;;;25.40;99.90;;;;;;5313391;27;20199;-59
2021/07/12 12:29:04;;;;;;;5.38;3.63;;;25.30;99.90;;;;;;5308314;27;20187;-67
2021/07/12 12:31:39;;;;;;;4.82;3.67;;;25.20;99.90;;;;;;5294990;27;20278;-65
2021/07/12 12:34:13;;;;;;;5.95;3.88;;;25.30;99.90;;;;;;5306569;27;20203;-69
2021/07/12 12:36:44;;;;;;;8.43;3.50;;;25.30;99.90;;;;;;5301975;27;20191;-67
2021/07/12 12:39:20;;;;;;;5.80;4.00;;;25.10;99.90;;;;;;5307289;27;20282;-68
2021/07/12 12:41:54;;;;;;;5.45;3.95;;;25.10;99.90;;;;;;5292194;28;20205;-69
2021/07/12 12:44:37;;;;;;;5.97;3.67;;;25.10;99.90;;;;;;5292224;27;20198;-68
2021/07/12 12:47:09;;;;;;;40.00;15.77;;;25.10;99.90;;;;;;5292278;28;20223;-70
2021/07/12 12:49:41;;;;;;;6.15;3.90;;;25.20;99.90;;;;;;5291254;28;20230;-69
2021/07/12 12:52:15;;;;;;;17.80;7.43;;;25.20;99.90;;;;;;5292107;28;20188;-66
2021/07/12 12:54:51;;;;;;;4.68;3.85;;;25.30;99.90;;;;;;5292245;28;20230;-66
2021/07/12 12:57:29;;;;;;;6.97;3.97;;;25.40;99.90;;;;;;5290971;28;20204;-69
2021/07/12 13:00:34;;;;;;;6.10;3.63;;;25.40;99.90;;;;;;5286376;28;20207;-68
2021/07/12 13:03:17;;;;;;;6.85;3.45;;;25.50;99.90;;;;;;5281216;27;20211;-69
2021/07/12 13:06:06;;;;;;;8.65;3.60;;;25.50;99.90;;;;;;5298730;27;20219;-69
2021/07/12 13:08:54;;;;;;;8.23;3.03;;;25.40;99.90;;;;;;5291850;28;20626;-68
2021/07/12 13:11:26;;;;;;;4.70;3.70;;;25.20;99.90;;;;;;5289553;28;20254;-68
2021/07/12 13:13:58;;;;;;;5.90;3.22;;;25.10;99.90;;;;;;5295238;27;20203;-73
2021/07/12 13:16:35;;;;;;;5.57;3.75;;;25.10;99.90;;;;;;5312453;27;20533;-68
2021/07/12 13:19:07;;;;;;;7.65;4.00;;;25.10;99.90;;;;;;5312010;27;20552;-67
2021/07/12 13:21:46;;;;;;;5.43;3.78;;;25.10;99.90;;;;;;5312854;27;20226;-70
2021/07/12 13:24:39;;;;;;;7.10;3.88;;;25.00;99.90;;;;;;5312569;27;20204;-68
2021/07/12 13:27:49;;;;;;;5.68;3.70;;;25.00;99.90;;;;;;5312525;27;20242;-68
2021/07/12 13:30:23;;;;;;;6.55;4.07;;;25.00;99.90;;;;;;5280683;27;20289;-71